createdAt,value
2022-11-07T00:00:23.526Z,3.10
2022-11-07T00:02:49.931Z,2.88
2022-11-07T00:05:16.395Z,3.80
2022-11-07T00:07:42.877Z,3.28
2022-11-07T00:10:09.533Z,3.50
2022-11-07T00:12:36.438Z,3.58
2022-11-07T00:15:04.686Z,3.22
2022-11-07T00:17:31.381Z,3.33
2022-11-07T00:19:58.809Z,3.40
2022-11-07T00:22:25.121Z,3.42
2022-11-07T00:24:53.205Z,3.35
2022-11-07T00:27:19.656Z,3.38
2022-11-07T00:29:46.048Z,3.58
2022-11-07T00:32:12.388Z,3.10
2022-11-07T00:34:38.708Z,3.70
2022-11-07T00:37:05.032Z,3.75
2022-11-07T00:39:31.645Z,3.80
2022-11-07T00:41:57.977Z,3.80
2022-11-07T00:44:24.637Z,4.28
2022-11-07T00:46:51.012Z,3.80
2022-11-07T00:49:17.314Z,3.90
2022-11-07T00:51:43.705Z,3.60
2022-11-07T00:54:10.048Z,3.88
2022-11-07T00:56:36.363Z,3.88
2022-11-07T00:59:02.860Z,3.85
2022-11-07T01:01:32.820Z,3.63
2022-11-07T01:04:18.093Z,3.92
2022-11-07T01:06:45.584Z,3.92
2022-11-07T01:09:14.985Z,3.83
2022-11-07T01:11:42.485Z,3.60
2022-11-07T01:14:09.567Z,4.18
2022-11-07T01:16:36.003Z,3.92
2022-11-07T01:19:03.330Z,3.90
2022-11-07T01:21:30.023Z,3.92
2022-11-07T01:23:56.635Z,3.95
2022-11-07T01:26:23.350Z,4.10
2022-11-07T01:28:49.743Z,3.95
2022-11-07T01:31:16.903Z,4.03
2022-11-07T01:33:43.856Z,4.50
2022-11-07T01:36:12.817Z,4.03
2022-11-07T01:38:41.319Z,3.75
2022-11-07T01:41:21.175Z,4.60
2022-11-07T01:44:15.384Z,4.25
2022-11-07T01:46:43.730Z,4.55
2022-11-07T01:49:13.949Z,4.35
2022-11-07T01:51:46.537Z,4.35
2022-11-07T01:54:13.900Z,4.07
2022-11-07T01:56:41.576Z,4.40
2022-11-07T01:59:08.718Z,4.30
2022-11-07T02:01:35.263Z,5.25
2022-11-07T02:04:02.465Z,4.45
2022-11-07T02:06:36.933Z,4.88
2022-11-07T02:09:04.028Z,4.38
2022-11-07T02:11:30.687Z,4.75
2022-11-07T02:13:57.204Z,5.38
2022-11-07T02:16:23.521Z,4.30
2022-11-07T02:18:49.881Z,4.80
2022-11-07T02:21:43.088Z,4.30
2022-11-07T02:24:12.298Z,4.63
2022-11-07T02:26:39.605Z,5.18
2022-11-07T02:29:08.267Z,4.70
2022-11-07T02:31:34.597Z,4.55
2022-11-07T02:34:00.908Z,5.43
2022-11-07T02:36:27.260Z,4.68
2022-11-07T02:38:58.922Z,5.40
2022-11-07T02:41:27.192Z,4.28
2022-11-07T02:43:58.635Z,5.38
2022-11-07T02:46:26.360Z,5.05
2022-11-07T02:48:56.214Z,4.65
2022-11-07T02:51:22.727Z,4.75
2022-11-07T02:53:49.060Z,5.35
2022-11-07T02:56:15.403Z,5.53
2022-11-07T02:58:41.750Z,5.35
2022-11-07T03:01:08.100Z,5.80
2022-11-07T03:03:39.421Z,5.53
2022-11-07T03:06:07.871Z,5.85
2022-11-07T03:08:34.600Z,5.63
2022-11-07T03:11:01.569Z,5.57
2022-11-07T03:13:29.461Z,5.82
2022-11-07T03:15:55.977Z,5.97
2022-11-07T03:18:22.597Z,5.35
2022-11-07T03:20:48.906Z,5.63
2022-11-07T03:23:15.808Z,5.50
2022-11-07T03:25:42.479Z,5.85
2022-11-07T03:28:08.887Z,5.78
2022-11-07T03:30:35.599Z,5.75
2022-11-07T03:33:02.056Z,5.40
2022-11-07T03:35:28.375Z,5.35
2022-11-07T03:37:54.747Z,6.13
2022-11-07T03:40:21.090Z,5.18
2022-11-07T03:42:47.502Z,5.45
2022-11-07T03:45:15.775Z,5.72
2022-11-07T03:47:43.846Z,5.60
2022-11-07T03:50:13.461Z,6.18
2022-11-07T03:52:39.816Z,5.20
2022-11-07T03:55:06.824Z,5.90
2022-11-07T03:57:33.330Z,6.22
2022-11-07T03:59:59.952Z,6.03
2022-11-07T04:02:26.494Z,6.15
2022-11-07T04:04:53.193Z,5.53
2022-11-07T04:07:19.555Z,5.35
2022-11-07T04:09:45.884Z,5.43
2022-11-07T04:12:30.638Z,6.07
2022-11-07T04:15:15.511Z,6.32
2022-11-07T04:17:42.128Z,6.07
2022-11-07T04:20:09.274Z,5.15
2022-11-07T04:22:35.645Z,5.35
2022-11-07T04:25:01.985Z,4.78
2022-11-07T04:27:43.178Z,5.97
2022-11-07T04:30:20.385Z,4.80
2022-11-07T04:32:47.955Z,5.05
2022-11-07T04:35:14.991Z,5.93
2022-11-07T04:37:41.741Z,5.13
2022-11-07T04:40:09.753Z,5.13
2022-11-07T04:42:36.302Z,4.18
2022-11-07T04:45:02.769Z,5.50
2022-11-07T04:47:29.085Z,4.88
2022-11-07T04:49:55.459Z,4.70
2022-11-07T04:52:21.900Z,4.57
2022-11-07T04:54:48.510Z,4.60
2022-11-07T04:57:15.527Z,5.13
2022-11-07T04:59:42.150Z,4.70
2022-11-07T05:02:12.323Z,4.70
2022-11-07T05:04:42.803Z,4.20
2022-11-07T05:07:09.587Z,4.35
2022-11-07T05:09:36.359Z,4.50
2022-11-07T05:12:03.013Z,4.03
2022-11-07T05:14:31.013Z,4.25
2022-11-07T05:16:57.608Z,3.80
2022-11-07T05:19:23.926Z,3.80
2022-11-07T05:22:10.241Z,4.53
2022-11-07T05:24:36.545Z,3.50
2022-11-07T05:27:02.856Z,3.88
2022-11-07T05:29:29.187Z,3.90
2022-11-07T05:31:55.514Z,4.03
2022-11-07T05:34:21.843Z,3.72
2022-11-07T05:36:48.345Z,3.78
2022-11-07T05:39:14.729Z,3.58
2022-11-07T05:41:41.055Z,3.30
2022-11-07T05:44:07.573Z,4.00
2022-11-07T05:46:33.891Z,3.13
2022-11-07T05:49:01.265Z,3.22
2022-11-07T05:51:27.761Z,3.72
2022-11-07T05:53:54.076Z,3.15
2022-11-07T05:56:20.397Z,3.78
2022-11-07T05:58:46.701Z,3.15
2022-11-07T06:01:13.011Z,3.75
2022-11-07T06:03:39.335Z,3.20
2022-11-07T06:06:05.939Z,3.58
2022-11-07T06:08:32.280Z,3.17
2022-11-07T06:10:58.568Z,3.03
2022-11-07T06:13:24.916Z,2.95
2022-11-07T06:15:51.229Z,3.35
2022-11-07T06:18:19.569Z,2.90
2022-11-07T06:20:46.023Z,3.13
2022-11-07T06:23:12.891Z,2.83
2022-11-07T06:25:39.545Z,2.95
2022-11-07T06:28:09.220Z,3.15
2022-11-07T06:30:35.903Z,2.67
2022-11-07T06:33:03.678Z,2.75
2022-11-07T06:35:30.534Z,2.80
2022-11-07T06:37:56.997Z,3.17
2022-11-07T06:40:23.301Z,2.95
2022-11-07T06:42:49.600Z,3.10
2022-11-07T06:45:15.998Z,3.10
2022-11-07T06:47:42.319Z,3.10
2022-11-07T06:50:09.090Z,3.40
2022-11-07T06:52:35.489Z,3.08
2022-11-07T06:55:01.835Z,3.05
2022-11-07T06:57:29.017Z,2.88
2022-11-07T06:59:55.412Z,2.67
2022-11-07T07:02:44.347Z,2.97
2022-11-07T07:05:08.119Z,3.08
2022-11-07T07:07:34.433Z,2.80
2022-11-07T07:10:00.894Z,2.97
2022-11-07T07:12:27.217Z,3.03
2022-11-07T07:14:53.565Z,3.20
2022-11-07T07:17:19.898Z,2.78
2022-11-07T07:19:46.266Z,3.03
2022-11-07T07:22:13.820Z,2.97
2022-11-07T07:24:40.336Z,2.53
2022-11-07T07:27:07.061Z,3.38
2022-11-07T07:29:33.586Z,2.60
2022-11-07T07:31:59.956Z,2.92
2022-11-07T07:34:26.497Z,2.88
2022-11-07T07:36:55.745Z,2.22
2022-11-07T07:39:23.515Z,2.53
2022-11-07T07:41:50.645Z,2.50
2022-11-07T07:44:17.146Z,2.60
2022-11-07T07:46:43.776Z,2.50
2022-11-07T07:49:10.129Z,2.80
2022-11-07T07:51:36.541Z,3.03
2022-11-07T07:54:02.942Z,2.05
2022-11-07T07:56:29.288Z,3.35
2022-11-07T07:58:55.614Z,2.25
2022-11-07T08:01:22.094Z,2.88
2022-11-07T08:04:01.228Z,2.22
2022-11-07T08:06:28.682Z,2.20
2022-11-07T08:08:55.031Z,2.20
2022-11-07T08:11:21.354Z,2.80
2022-11-07T08:13:47.655Z,2.50
2022-11-07T08:16:14.028Z,2.13
2022-11-07T08:18:40.778Z,2.72
2022-11-07T08:21:09.538Z,2.63
2022-11-07T08:23:36.349Z,2.60
2022-11-07T08:26:04.271Z,2.33
2022-11-07T08:28:32.530Z,2.05
2022-11-07T08:31:07.657Z,2.03
2022-11-07T08:33:34.516Z,2.55
2022-11-07T08:36:01.938Z,2.65
2022-11-07T08:38:29.680Z,2.30
2022-11-07T08:40:56.506Z,2.60
2022-11-07T08:43:23.151Z,2.55
2022-11-07T08:45:49.808Z,2.72
2022-11-07T08:48:16.924Z,2.40
2022-11-07T08:50:43.685Z,2.30
2022-11-07T08:53:10.280Z,2.33
2022-11-07T08:55:36.602Z,2.47
2022-11-07T08:58:05.754Z,3.22
2022-11-07T09:00:34.496Z,2.17
2022-11-07T09:03:38.673Z,2.60
2022-11-07T09:05:52.093Z,2.58
2022-11-07T09:08:19.008Z,2.42
2022-11-07T09:10:45.368Z,2.15
2022-11-07T09:13:14.765Z,2.30
2022-11-07T09:15:44.885Z,2.33
2022-11-07T09:18:15.356Z,2.45
2022-11-07T09:20:41.672Z,2.28
2022-11-07T09:23:09.022Z,1.90
2022-11-07T09:25:35.513Z,2.92
2022-11-07T09:28:03.019Z,2.97
2022-11-07T09:30:29.371Z,2.63
2022-11-07T09:32:56.361Z,2.72
2022-11-07T09:35:22.693Z,2.70
2022-11-07T09:37:50.088Z,2.47
2022-11-07T09:40:19.370Z,2.47
2022-11-07T09:43:12.728Z,2.83
2022-11-07T09:45:55.044Z,2.40
2022-11-07T09:48:24.465Z,2.50
2022-11-07T09:50:51.612Z,2.60
2022-11-07T09:53:39.808Z,2.58
2022-11-07T09:56:08.964Z,2.45
2022-11-07T09:58:42.010Z,2.25
2022-11-07T10:01:16.967Z,2.60
2022-11-07T10:04:17.676Z,2.58
2022-11-07T10:06:33.606Z,2.13
2022-11-07T10:09:14.918Z,2.58
2022-11-07T10:11:46.097Z,2.40
2022-11-07T10:14:41.734Z,2.33
2022-11-07T10:17:10.853Z,2.25
2022-11-07T10:20:01.932Z,2.25
2022-11-07T10:22:35.014Z,2.10
2022-11-07T10:25:13.035Z,2.22
2022-11-07T10:27:39.781Z,2.78
2022-11-07T10:30:16.521Z,2.75
2022-11-07T10:32:53.415Z,2.72
2022-11-07T10:35:31.383Z,3.00
2022-11-07T10:38:00.577Z,2.78
2022-11-07T10:40:38.424Z,2.25
2022-11-07T10:43:08.187Z,3.08
2022-11-07T10:45:35.103Z,2.25
2022-11-07T10:48:03.436Z,2.67
2022-11-07T10:50:30.495Z,2.25
2022-11-07T10:53:03.255Z,2.72
2022-11-07T10:55:33.670Z,2.08
2022-11-07T10:58:06.397Z,2.33
2022-11-07T11:00:35.818Z,2.53
2022-11-07T11:03:02.234Z,3.05
2022-11-07T11:05:33.372Z,2.83
2022-11-07T11:08:31.971Z,2.45
2022-11-07T11:10:58.310Z,2.60
2022-11-07T11:13:29.791Z,2.42
2022-11-07T11:16:04.302Z,2.70
2022-11-07T11:18:32.257Z,2.75
2022-11-07T11:21:01.673Z,2.15
2022-11-07T11:23:30.561Z,2.42
2022-11-07T11:26:09.079Z,3.05
2022-11-07T11:28:43.245Z,2.88
2022-11-07T11:33:49.470Z,2.17
2022-11-07T11:36:22.073Z,2.55
2022-11-07T11:38:54.185Z,2.58
2022-11-07T11:41:25.159Z,2.05
2022-11-07T11:44:01.199Z,2.40
2022-11-07T11:46:37.811Z,2.60
2022-11-07T11:49:27.680Z,2.85
2022-11-07T11:51:56.650Z,2.72
2022-11-07T11:54:23.004Z,2.67
2022-11-07T11:56:59.468Z,2.08
2022-11-07T11:59:54.938Z,2.65
2022-11-07T12:02:38.791Z,2.60
2022-11-07T12:05:20.338Z,2.08
2022-11-07T12:08:00.771Z,1.83
2022-11-07T12:10:40.151Z,2.33
2022-11-07T12:13:27.817Z,2.42
2022-11-07T12:16:19.454Z,2.00
2022-11-07T12:18:51.603Z,2.85
2022-11-07T12:21:23.804Z,2.13
2022-11-07T12:24:11.617Z,2.80
2022-11-07T12:26:47.131Z,2.10
2022-11-07T12:29:41.237Z,2.65
2022-11-07T12:32:23.908Z,2.80
2022-11-07T12:35:23.288Z,2.72
2022-11-07T12:38:14.302Z,2.60
2022-11-07T12:40:52.737Z,2.45
2022-11-07T12:43:28.747Z,2.17
2022-11-07T12:46:07.565Z,3.15
2022-11-07T12:48:46.115Z,2.08
2022-11-07T12:51:27.453Z,2.45
2022-11-07T12:54:16.357Z,2.25
2022-11-07T12:56:45.441Z,2.65
2022-11-07T12:59:22.313Z,2.20
2022-11-07T13:01:56.040Z,2.40
2022-11-07T13:04:30.342Z,2.72
2022-11-07T13:07:05.782Z,2.40
2022-11-07T13:09:39.501Z,2.70
2022-11-07T13:12:25.644Z,2.80
2022-11-07T13:14:52.118Z,2.72
2022-11-07T13:17:20.986Z,2.97
2022-11-07T13:20:05.559Z,2.50
2022-11-07T13:25:17.036Z,2.22
2022-11-07T13:27:44.818Z,2.67
2022-11-07T13:30:14.413Z,2.25
2022-11-07T13:32:44.453Z,2.35
2022-11-07T13:35:22.603Z,2.50
2022-11-07T13:38:07.364Z,2.70
2022-11-07T13:40:38.271Z,2.05
2022-11-07T13:43:19.934Z,2.75
2022-11-07T13:45:52.184Z,2.60
2022-11-07T13:48:21.837Z,2.22
2022-11-07T13:51:16.876Z,2.42
2022-11-07T13:54:28.281Z,2.50
2022-11-07T13:57:17.837Z,2.20
2022-11-07T13:59:56.295Z,3.28
2022-11-07T14:02:24.670Z,2.88
2022-11-07T14:05:15.177Z,2.50
2022-11-07T14:07:41.614Z,2.45
2022-11-07T14:10:24.148Z,2.60
2022-11-07T14:12:53.782Z,2.30
2022-11-07T14:15:20.793Z,2.15
2022-11-07T14:17:47.314Z,2.47
2022-11-07T14:20:18.201Z,2.95
2022-11-07T14:23:00.778Z,3.33
2022-11-07T14:25:29.198Z,4.18
2022-11-07T14:27:56.174Z,3.72
2022-11-07T14:30:23.967Z,3.70
2022-11-07T14:32:55.416Z,2.90
2022-11-07T14:35:24.698Z,2.53
2022-11-07T14:37:51.037Z,3.30
2022-11-07T14:40:18.339Z,2.85
2022-11-07T14:42:45.052Z,2.50
2022-11-07T14:45:13.998Z,2.97
2022-11-07T14:47:50.023Z,2.30
2022-11-07T14:50:20.642Z,2.58
2022-11-07T14:52:56.172Z,2.78
2022-11-07T14:55:39.337Z,2.40
2022-11-07T14:58:06.450Z,2.72
2022-11-07T15:00:34.997Z,2.70
2022-11-07T15:03:01.389Z,2.17
2022-11-07T15:05:39.482Z,2.60
2022-11-07T15:08:05.823Z,2.45
2022-11-07T15:10:38.767Z,2.85
2022-11-07T15:13:25.387Z,2.45
2022-11-07T15:16:13.520Z,2.72
2022-11-07T15:18:42.433Z,2.38
2022-11-07T15:21:12.257Z,2.45
2022-11-07T15:23:38.627Z,2.72
2022-11-07T15:26:09.549Z,2.33
2022-11-07T15:28:41.753Z,2.63
2022-11-07T15:31:24.946Z,2.33
2022-11-07T15:33:55.976Z,2.42
2022-11-07T15:36:23.076Z,2.75
2022-11-07T15:38:50.508Z,2.80
2022-11-07T15:41:17.812Z,2.60
2022-11-07T15:43:44.241Z,3.42
2022-11-07T15:46:26.484Z,2.47
2022-11-07T15:48:53.057Z,3.13
2022-11-07T15:51:19.377Z,2.90
2022-11-07T15:53:45.750Z,2.35
2022-11-07T15:56:14.946Z,2.67
2022-11-07T15:58:41.501Z,2.60
2022-11-07T16:01:07.880Z,2.83
2022-11-07T16:03:34.578Z,2.25
2022-11-07T16:06:01.488Z,2.78
2022-11-07T16:08:29.622Z,2.42
2022-11-07T16:11:00.990Z,3.00
2022-11-07T16:13:28.053Z,2.65
2022-11-07T16:15:59.477Z,3.10
2022-11-07T16:18:26.575Z,2.97
2022-11-07T16:20:52.950Z,3.35
2022-11-07T16:23:20.045Z,3.22
2022-11-07T16:25:48.541Z,3.20
2022-11-07T16:28:30.967Z,3.00
2022-11-07T16:30:57.536Z,3.72
2022-11-07T16:33:24.724Z,3.38
2022-11-07T16:35:53.184Z,3.65
2022-11-07T16:38:20.589Z,3.40
2022-11-07T16:40:47.143Z,3.38
2022-11-07T16:43:14.020Z,3.95
2022-11-07T16:45:48.801Z,3.30
2022-11-07T16:48:20.434Z,3.55
2022-11-07T16:50:46.916Z,3.38
2022-11-07T16:53:13.917Z,3.10
2022-11-07T16:55:45.551Z,3.42
2022-11-07T16:58:23.314Z,3.20
2022-11-07T17:00:50.103Z,2.55
2022-11-07T17:03:16.706Z,2.97
2022-11-07T17:05:43.356Z,3.35
2022-11-07T17:08:18.480Z,2.40
2022-11-07T17:10:46.308Z,3.35
2022-11-07T17:13:13.168Z,2.40
2022-11-07T17:15:41.200Z,3.53
2022-11-07T17:18:17.409Z,2.75
2022-11-07T17:20:52.087Z,2.83
2022-11-07T17:23:19.254Z,2.60
2022-11-07T17:25:52.459Z,3.70
2022-11-07T17:28:19.111Z,3.70
2022-11-07T17:30:45.878Z,3.22
2022-11-07T17:33:12.245Z,3.10
2022-11-07T17:35:38.884Z,3.30
2022-11-07T17:38:05.622Z,3.63
2022-11-07T17:40:33.487Z,3.08
2022-11-07T17:43:00.174Z,3.00
2022-11-07T17:45:27.022Z,3.10
2022-11-07T17:47:53.823Z,3.33
2022-11-07T17:50:21.135Z,3.10
2022-11-07T17:52:47.676Z,3.22
2022-11-07T17:55:14.034Z,2.97
2022-11-07T17:57:40.841Z,2.90
2022-11-07T18:00:12.360Z,2.70
2022-11-07T18:02:39.099Z,2.53
2022-11-07T18:05:05.737Z,2.63
2022-11-07T18:07:33.804Z,2.60
2022-11-07T18:10:01.900Z,2.72
2022-11-07T18:12:28.278Z,2.70
2022-11-07T18:14:54.682Z,2.80
2022-11-07T18:17:21.008Z,3.13
2022-11-07T18:19:47.899Z,3.45
2022-11-07T18:22:14.230Z,3.20
2022-11-07T18:24:43.541Z,3.25
2022-11-07T18:27:10.790Z,2.72
2022-11-07T18:29:39.073Z,2.80
2022-11-07T18:32:05.716Z,3.42
2022-11-07T18:34:32.340Z,3.40
2022-11-07T18:36:58.705Z,3.22
2022-11-07T18:39:25.380Z,3.00
2022-11-07T18:41:53.818Z,2.85
2022-11-07T18:44:20.210Z,2.97
2022-11-07T18:46:47.247Z,2.83
2022-11-07T18:49:18.648Z,3.00
2022-11-07T18:51:46.566Z,3.78
2022-11-07T18:54:13.676Z,2.70
2022-11-07T18:56:40.373Z,2.63
2022-11-07T18:59:06.768Z,3.28
2022-11-07T19:01:33.981Z,3.55
2022-11-07T19:04:03.357Z,3.35
2022-11-07T19:06:30.425Z,3.20
2022-11-07T19:08:56.772Z,4.15
2022-11-07T19:11:26.470Z,4.03
2022-11-07T19:13:53.158Z,3.78
2022-11-07T19:16:20.966Z,2.97
2022-11-07T19:18:49.766Z,2.80
2022-11-07T19:21:19.779Z,2.92
2022-11-07T19:23:46.693Z,3.17
2022-11-07T19:26:13.194Z,3.13
2022-11-07T19:28:40.143Z,3.30
2022-11-07T19:31:07.980Z,3.45
2022-11-07T19:33:34.333Z,2.90
2022-11-07T19:36:05.945Z,3.60
2022-11-07T19:38:32.935Z,3.15
2022-11-07T19:41:04.112Z,3.42
2022-11-07T19:43:30.855Z,3.35
2022-11-07T19:45:57.311Z,3.08
2022-11-07T19:48:23.678Z,3.05
2022-11-07T19:50:50.024Z,3.53
2022-11-07T19:53:16.793Z,3.50
2022-11-07T19:55:43.288Z,3.13
2022-11-07T19:58:09.629Z,3.28
2022-11-07T20:00:36.012Z,3.50
2022-11-07T20:03:02.460Z,2.80
2022-11-07T20:05:34.240Z,3.42
2022-11-07T20:08:04.985Z,3.40
2022-11-07T20:10:32.408Z,3.80
2022-11-07T20:12:58.741Z,3.67
2022-11-07T20:15:25.105Z,4.75
2022-11-07T20:17:51.450Z,7.53
2022-11-07T20:20:17.784Z,4.55
2022-11-07T20:22:47.239Z,5.43
2022-11-07T20:25:13.789Z,5.07
2022-11-07T20:27:40.186Z,4.35
2022-11-07T20:30:07.337Z,4.25
2022-11-07T20:32:33.706Z,3.75
2022-11-07T20:35:00.038Z,4.00
2022-11-07T20:37:26.440Z,3.60
2022-11-07T20:39:52.743Z,4.20
2022-11-07T20:42:19.131Z,3.55
2022-11-07T20:44:50.164Z,5.03
2022-11-07T20:47:16.836Z,5.45
2022-11-07T20:49:43.160Z,7.40
2022-11-07T20:52:09.706Z,11.75
2022-11-07T20:54:36.468Z,8.60
2022-11-07T20:57:03.640Z,7.55
2022-11-07T20:59:31.564Z,7.15
2022-11-07T21:02:03.232Z,6.70
2022-11-07T21:04:44.458Z,6.38
2022-11-07T21:07:19.461Z,5.85
2022-11-07T21:09:46.331Z,5.70
2022-11-07T21:12:13.054Z,5.70
2022-11-07T21:14:41.530Z,4.80
2022-11-07T21:17:09.047Z,4.82
2022-11-07T21:19:35.407Z,5.40
2022-11-07T21:22:01.820Z,4.43
2022-11-07T21:24:31.504Z,4.20
2022-11-07T21:26:58.010Z,4.25
2022-11-07T21:29:29.206Z,4.72
2022-11-07T21:31:56.009Z,4.63
2022-11-07T21:34:22.949Z,4.50
2022-11-07T21:36:49.283Z,4.13
2022-11-07T21:39:16.270Z,4.22
2022-11-07T21:41:42.801Z,3.85
2022-11-07T21:44:10.189Z,4.22
2022-11-07T21:46:36.585Z,3.55
2022-11-07T21:49:04.164Z,5.25
2022-11-07T21:51:31.906Z,5.18
2022-11-07T21:53:58.996Z,4.55
2022-11-07T21:56:33.374Z,4.15
2022-11-07T21:59:01.691Z,6.30
2022-11-07T22:01:29.519Z,6.50
2022-11-07T22:04:12.373Z,6.88
2022-11-07T22:06:41.244Z,7.65
2022-11-07T22:09:08.868Z,6.85
2022-11-07T22:11:35.321Z,5.30
2022-11-07T22:14:02.193Z,5.15
2022-11-07T22:16:28.781Z,5.82
2022-11-07T22:18:55.255Z,4.60
2022-11-07T22:21:22.670Z,5.35
2022-11-07T22:23:49.270Z,5.05
2022-11-07T22:26:21.211Z,4.20
2022-11-07T22:28:48.690Z,4.80
2022-11-07T22:31:20.312Z,4.20
2022-11-07T22:33:47.272Z,4.60
2022-11-07T22:36:14.213Z,4.82
2022-11-07T22:38:40.965Z,4.13
2022-11-07T22:41:09.544Z,3.95
2022-11-07T22:43:35.848Z,3.58
2022-11-07T22:46:04.329Z,3.63
2022-11-07T22:48:30.854Z,3.63
2022-11-07T22:51:04.925Z,3.80
2022-11-07T22:53:31.469Z,3.88
2022-11-07T22:55:58.099Z,4.05
2022-11-07T22:58:24.551Z,3.83
2022-11-07T23:00:51.028Z,3.70
2022-11-07T23:03:17.468Z,4.25
2022-11-07T23:05:43.873Z,3.92
2022-11-07T23:08:10.263Z,3.88
2022-11-07T23:10:36.585Z,4.13
2022-11-07T23:13:04.586Z,3.60
2022-11-07T23:15:31.847Z,4.25
2022-11-07T23:17:58.311Z,3.97
2022-11-07T23:20:43.980Z,4.00
2022-11-07T23:23:10.295Z,4.45
2022-11-07T23:25:36.835Z,4.38
2022-11-07T23:28:07.234Z,4.30
2022-11-07T23:30:33.737Z,3.40
2022-11-07T23:33:00.057Z,3.88
2022-11-07T23:35:26.418Z,3.58
2022-11-07T23:37:52.759Z,3.78
2022-11-07T23:40:19.076Z,3.65
2022-11-07T23:42:45.389Z,4.05
2022-11-07T23:45:30.255Z,3.78
2022-11-07T23:48:18.173Z,3.78
2022-11-07T23:51:02.805Z,3.38
2022-11-07T23:53:56.234Z,3.63
2022-11-07T23:56:24.873Z,3.75
2022-11-07T23:59:10.045Z,4.50
